Terminal Aerodrome Forecast
Issued by NWS

Home | Current Version | Previous Version | Text Only | Print | Product List | Glossary On
Versions: 1 2 3 4 5 6 7 8 9 10 11 12 13 14 15
000
FTUS43 KUNR 031742
TAFGCC
TAF
KGCC 031742Z 0318/0418 04010G18KT P6SM BKN200
     FM032100 10010KT P6SM BKN050
     FM040600 14013KT P6SM OVC040
      TEMPO 0407/0411 -SHRA=

USA.gov is the U.S. government's official web portal to all federal, state and local government web resources and services.